Etusivu
METAR-TAF:

METAR-TAF

Lentoasemat :

Antonio B. Won Patin kansainvälinen lentoasema

Hagåtña, Guam, Yhdysvallat

Leveyspiiri: 13-29N, Pituuspiiri: 144-48E, korkeus merenpinnasta: 91 m

Tämänhetkinen sää

Tämä raportti tehtiin 1 tunti ja 6 minuuttia sitten, kello 15.54 UTC
Tuuli 3 kn etelästä
Lämpötila 27°C
Kosteus 84%
Ilmanpaine 1010 hPa
Näkyvyys: 16.1 km
selkeää

METAR: PGUM 211554Z 18003KT 10SM CLR 27/24 A2982 RMK AO2 SLP090 T02670239

Aika: 03:00 (17:00 UTC)

Sääennuste

Tämä raportti tehtiin 5 tuntia ja 31 minuuttia sitten, kello 11.29 UTC
Ennuste voimassa 21. päivästä klo 12 UTC - 22. päivään klo 18 UTC
Tuuli 8 kn etelästä/lounaasta
Näkyvyys: 10 km
Muutamia pilviä 2000 ft:n korkeudessa
Hajanaisia pilviä 4000 ft:n korkeudessa
sadekuuroja näköpiirissä

TAF: PGUM 211129Z 2112/2218 20008KT P6SM VCSH FEW020 SCT040

Säähavainnot ja -ennusteet yli 4000 lentoasemalta (METAR- ja TAF-raportit).

Käytössä olevat sääasemat on merkitty karttaan keltaisilla ja punaisilla pisteillä.

Aseta hiiri pisteen päälle nähdäksesi sääaseman nimen.

Klikkaa sitten nähdäksesi säähavainnot ja -ennusteet.

Kartan vaihtaminen: klikkaa mustalla rastilla varustettuja vihreitä pisteitä, niin voit zoomata sisään; viivalla varustettua vihreää pistettä, niin voit zoomata ulos tai vihreitä nuolia, niin pääset viereisille kartoille.


METAR-TAF: